createdAt,value
2023-05-05T00:00:55.936Z,95427.00
2023-05-05T00:01:55.931Z,95427.00
2023-05-05T00:02:56.010Z,95425.00
2023-05-05T00:03:56.074Z,95425.00
2023-05-05T00:04:56.036Z,95417.00
2023-05-05T00:05:56.110Z,95421.00
2023-05-05T00:06:56.159Z,95419.00
2023-05-05T00:07:56.251Z,95419.00
2023-05-05T00:08:56.320Z,95419.00
2023-05-05T00:09:56.307Z,95419.00
2023-05-05T00:10:56.351Z,95417.00
2023-05-05T00:11:56.385Z,95419.00
2023-05-05T00:12:56.425Z,95417.00
2023-05-05T00:13:56.499Z,95417.00
2023-05-05T00:14:56.409Z,95415.00
2023-05-05T00:15:56.478Z,95419.00
2023-05-05T00:16:56.518Z,95417.00
2023-05-05T00:17:56.515Z,95415.00
2023-05-05T00:18:56.536Z,95417.00
2023-05-05T00:19:56.613Z,95415.00
2023-05-05T00:20:56.590Z,95419.00
2023-05-05T00:21:56.584Z,95419.00
2023-05-05T00:22:56.606Z,95419.00
2023-05-05T00:23:56.674Z,95419.00
2023-05-05T00:24:56.678Z,95419.00
2023-05-05T00:25:56.695Z,95421.00
2023-05-05T00:26:56.854Z,95419.00
2023-05-05T00:27:56.802Z,95417.00
2023-05-05T00:28:56.809Z,95421.00
2023-05-05T00:29:56.819Z,95417.00
2023-05-05T00:30:56.901Z,95419.00
2023-05-05T00:31:56.872Z,95419.00
2023-05-05T00:32:56.982Z,95417.00
2023-05-05T00:33:56.949Z,95417.00
2023-05-05T00:34:56.962Z,95417.00
2023-05-05T00:35:57.006Z,95421.00
2023-05-05T00:36:56.990Z,95421.00
2023-05-05T00:37:57.013Z,95419.00
2023-05-05T00:38:57.131Z,95421.00
2023-05-05T00:39:57.006Z,95423.00
2023-05-05T00:40:57.032Z,95421.00
2023-05-05T00:41:57.049Z,95419.00
2023-05-05T00:42:57.028Z,95425.00
2023-05-05T00:43:57.052Z,95423.00
2023-05-05T00:44:57.044Z,95427.00
2023-05-05T00:45:57.202Z,95423.00
2023-05-05T00:46:57.084Z,95427.00
2023-05-05T00:47:57.101Z,95427.00
2023-05-05T00:48:57.108Z,95425.00
2023-05-05T00:49:57.122Z,95425.00
2023-05-05T00:50:57.110Z,95423.00
2023-05-05T00:51:57.098Z,95421.00
2023-05-05T00:52:57.153Z,95423.00
2023-05-05T00:53:57.137Z,95421.00
2023-05-05T00:54:57.123Z,95419.00
2023-05-05T00:55:57.102Z,95419.00
2023-05-05T00:56:57.118Z,95419.00
2023-05-05T00:57:57.091Z,95421.00
2023-05-05T00:58:57.158Z,95419.00
2023-05-05T00:59:57.124Z,95423.00
2023-05-05T01:00:57.137Z,95423.00
2023-05-05T01:01:57.331Z,95421.00
2023-05-05T01:02:57.322Z,95421.00
2023-05-05T01:03:57.228Z,95423.00
2023-05-05T01:04:57.171Z,95419.00
2023-05-05T01:05:57.164Z,95417.00
2023-05-05T01:06:57.235Z,95415.00
2023-05-05T01:07:57.237Z,95415.00
2023-05-05T01:08:57.189Z,95407.00
2023-05-05T01:10:07.623Z,95415.00
2023-05-05T01:10:58.235Z,95417.00
2023-05-05T01:11:57.152Z,95407.00
2023-05-05T01:12:57.259Z,95415.00
2023-05-05T01:13:57.177Z,95415.00
2023-05-05T01:14:57.165Z,95415.00
2023-05-05T01:15:57.191Z,95417.00
2023-05-05T01:16:57.194Z,95417.00
2023-05-05T01:17:57.179Z,95415.00
2023-05-05T01:18:57.213Z,95417.00
2023-05-05T01:19:57.163Z,95417.00
2023-05-05T01:20:57.108Z,95417.00
2023-05-05T01:21:57.099Z,95407.00
2023-05-05T01:22:57.123Z,95417.00
2023-05-05T01:23:57.086Z,95419.00
2023-05-05T01:24:57.113Z,95421.00
2023-05-05T01:25:57.121Z,95419.00
2023-05-05T01:26:57.048Z,95423.00
2023-05-05T01:27:57.125Z,95421.00
2023-05-05T01:28:57.159Z,95423.00
2023-05-05T01:29:57.196Z,95425.00
2023-05-05T01:30:57.264Z,95423.00
2023-05-05T01:31:57.478Z,95427.00
2023-05-05T01:32:57.353Z,95423.00
2023-05-05T01:33:57.396Z,95423.00
2023-05-05T01:34:57.516Z,95423.00
2023-05-05T01:35:57.471Z,95427.00
2023-05-05T01:36:57.516Z,95427.00
2023-05-05T01:37:57.599Z,95429.00
2023-05-05T01:38:57.644Z,95429.00
2023-05-05T01:39:57.707Z,95427.00
2023-05-05T01:40:57.821Z,95430.00
2023-05-05T01:41:57.769Z,95432.00
2023-05-05T01:42:57.823Z,95430.00
2023-05-05T01:43:57.950Z,95429.00
2023-05-05T01:44:57.955Z,95429.00
2023-05-05T01:45:58.025Z,95430.00
2023-05-05T01:46:58.077Z,95432.00
2023-05-05T01:47:58.148Z,95430.00
2023-05-05T01:48:58.126Z,95430.00
2023-05-05T01:49:58.188Z,95430.00
2023-05-05T01:50:58.225Z,95432.00
2023-05-05T01:51:58.270Z,95429.00
2023-05-05T01:52:58.313Z,95430.00
2023-05-05T01:53:58.399Z,95425.00
2023-05-05T01:54:58.555Z,95425.00
2023-05-05T01:55:58.471Z,95427.00
2023-05-05T01:56:58.593Z,95429.00
2023-05-05T01:57:58.634Z,95430.00
2023-05-05T01:58:58.651Z,95434.00
2023-05-05T01:59:58.691Z,95436.00
2023-05-05T02:00:58.859Z,95436.00
2023-05-05T02:01:58.805Z,95436.00
2023-05-05T02:02:58.930Z,95434.00
2023-05-05T02:03:58.975Z,95432.00
2023-05-05T02:04:59.014Z,95430.00
2023-05-05T02:05:59.026Z,95429.00
2023-05-05T02:06:59.129Z,95430.00
2023-05-05T02:07:59.214Z,95434.00
2023-05-05T02:08:59.197Z,95434.00
2023-05-05T02:09:59.282Z,95436.00
2023-05-05T02:11:34.386Z,95438.00
2023-05-05T02:12:34.335Z,95438.00
2023-05-05T02:13:34.372Z,95436.00
2023-05-05T02:14:34.379Z,95436.00
2023-05-05T02:15:34.338Z,95438.00
2023-05-05T02:16:34.332Z,95438.00
2023-05-05T02:17:34.439Z,95440.00
2023-05-05T02:18:34.325Z,95440.00
2023-05-05T02:19:34.333Z,95442.00
2023-05-05T02:20:34.331Z,95442.00
2023-05-05T02:21:34.316Z,95442.00
2023-05-05T02:22:34.291Z,95440.00
2023-05-05T02:23:34.275Z,95442.00
2023-05-05T02:24:34.316Z,95442.00
2023-05-05T02:25:34.256Z,95444.00
2023-05-05T02:26:34.360Z,95448.00
2023-05-05T02:27:34.243Z,95448.00
2023-05-05T02:28:34.257Z,95448.00
2023-05-05T02:29:34.256Z,95448.00
2023-05-05T02:30:34.239Z,95450.00
2023-05-05T02:31:34.305Z,95448.00
2023-05-05T02:32:34.410Z,95450.00
2023-05-05T02:33:34.360Z,95448.00
2023-05-05T02:34:34.387Z,95448.00
2023-05-05T02:35:34.333Z,95446.00
2023-05-05T02:36:34.330Z,95446.00
2023-05-05T02:37:34.381Z,95448.00
2023-05-05T02:38:34.324Z,95446.00
2023-05-05T02:39:34.369Z,95450.00
2023-05-05T02:40:34.367Z,95452.00
2023-05-05T02:41:34.359Z,95452.00
2023-05-05T02:42:34.585Z,95454.00
2023-05-05T02:43:34.377Z,95454.00
2023-05-05T02:44:34.412Z,95456.00
2023-05-05T02:45:34.420Z,95452.00
2023-05-05T02:46:34.438Z,95454.00
2023-05-05T02:47:34.450Z,95456.00
2023-05-05T02:48:34.453Z,95456.00
2023-05-05T02:49:34.466Z,95458.00
2023-05-05T02:50:34.451Z,95456.00
2023-05-05T02:51:34.496Z,95460.00
2023-05-05T02:52:34.543Z,95454.00
2023-05-05T02:53:35.066Z,95456.00
2023-05-05T02:54:34.563Z,95458.00
2023-05-05T02:55:34.565Z,95456.00
2023-05-05T02:56:34.612Z,95456.00
2023-05-05T02:57:34.680Z,95456.00
2023-05-05T02:58:34.670Z,95456.00
2023-05-05T02:59:34.739Z,95452.00
2023-05-05T03:00:34.736Z,95454.00
2023-05-05T03:01:34.871Z,95456.00
2023-05-05T03:02:34.841Z,95454.00
2023-05-05T03:03:34.899Z,95456.00
2023-05-05T03:04:34.886Z,95458.00
2023-05-05T03:05:34.889Z,95460.00
2023-05-05T03:06:34.908Z,95462.00
2023-05-05T03:07:35.004Z,95460.00
2023-05-05T03:08:34.992Z,95462.00
2023-05-05T03:09:35.019Z,95462.00
2023-05-05T03:10:35.092Z,95462.00
2023-05-05T03:11:35.087Z,95458.00
2023-05-05T03:12:35.147Z,95454.00
2023-05-05T03:13:35.138Z,95460.00
2023-05-05T03:14:35.210Z,95458.00
2023-05-05T03:15:35.207Z,95460.00
2023-05-05T03:16:35.302Z,95458.00
2023-05-05T03:17:35.273Z,95460.00
2023-05-05T03:18:35.266Z,95460.00
2023-05-05T03:19:35.341Z,95462.00
2023-05-05T03:20:35.343Z,95462.00
2023-05-05T03:21:35.355Z,95462.00
2023-05-05T03:22:35.423Z,95462.00
2023-05-05T03:23:35.435Z,95458.00
2023-05-05T03:24:35.478Z,95456.00
2023-05-05T03:25:35.475Z,95458.00
2023-05-05T03:26:35.544Z,95460.00
2023-05-05T03:27:35.602Z,95456.00
2023-05-05T03:28:35.565Z,95458.00
2023-05-05T03:29:35.621Z,95458.00
2023-05-05T03:30:35.667Z,95456.00
2023-05-05T03:31:35.689Z,95456.00
2023-05-05T03:32:35.792Z,95462.00
2023-05-05T03:33:35.784Z,95458.00
2023-05-05T03:34:35.887Z,95460.00
2023-05-05T03:35:35.960Z,95460.00
2023-05-05T03:36:36.045Z,95456.00
2023-05-05T03:37:36.079Z,95458.00
2023-05-05T03:38:36.079Z,95458.00
2023-05-05T03:39:36.194Z,95456.00
2023-05-05T03:40:43.430Z,95456.00
2023-05-05T03:41:37.246Z,95458.00
2023-05-05T03:42:36.225Z,95460.00
2023-05-05T03:43:36.244Z,95460.00
2023-05-05T03:44:36.232Z,95460.00
2023-05-05T03:45:36.211Z,95460.00
2023-05-05T03:46:36.172Z,95460.00
2023-05-05T03:47:36.406Z,95460.00
2023-05-05T03:48:36.191Z,95458.00
2023-05-05T03:49:36.152Z,95458.00
2023-05-05T03:50:36.278Z,95458.00
2023-05-05T03:51:36.228Z,95458.00
2023-05-05T03:52:36.271Z,95460.00
2023-05-05T03:53:36.311Z,95456.00
2023-05-05T03:54:36.335Z,95458.00
2023-05-05T03:55:36.405Z,95456.00
2023-05-05T03:56:36.469Z,95456.00
2023-05-05T03:57:36.577Z,95456.00
2023-05-05T03:58:36.625Z,95454.00
2023-05-05T03:59:36.640Z,95454.00
2023-05-05T04:00:36.684Z,95456.00
2023-05-05T04:01:36.765Z,95450.00
2023-05-05T04:02:36.895Z,95450.00
2023-05-05T04:03:36.962Z,95454.00
2023-05-05T04:04:36.979Z,95454.00
2023-05-05T04:05:36.994Z,95456.00
2023-05-05T04:06:37.038Z,95456.00
2023-05-05T04:07:37.099Z,95458.00
2023-05-05T04:08:37.627Z,95458.00
2023-05-05T04:09:37.175Z,95458.00
2023-05-05T04:10:37.277Z,95458.00
2023-05-05T04:11:37.287Z,95456.00
2023-05-05T04:12:37.515Z,95458.00
2023-05-05T04:13:37.412Z,95456.00
2023-05-05T04:14:37.468Z,95456.00
2023-05-05T04:15:37.556Z,95458.00
2023-05-05T04:16:37.562Z,95456.00
2023-05-05T04:17:37.718Z,95460.00
2023-05-05T04:18:37.725Z,95456.00
2023-05-05T04:19:37.831Z,95460.00
2023-05-05T04:20:37.809Z,95460.00
2023-05-05T04:21:37.874Z,95460.00
2023-05-05T04:22:37.960Z,95460.00
2023-05-05T04:23:38.027Z,95462.00
2023-05-05T04:24:38.064Z,95460.00
2023-05-05T04:25:38.162Z,95460.00
2023-05-05T04:26:38.220Z,95460.00
2023-05-05T04:27:38.269Z,95456.00
2023-05-05T04:28:38.269Z,95462.00
2023-05-05T04:29:38.370Z,95460.00
2023-05-05T04:30:38.379Z,95464.00
2023-05-05T04:31:38.561Z,95462.00
2023-05-05T04:32:38.545Z,95466.00
2023-05-05T04:33:38.563Z,95464.00
2023-05-05T04:34:38.621Z,95464.00
2023-05-05T04:35:38.653Z,95466.00
2023-05-05T04:36:38.725Z,95468.00
2023-05-05T04:37:38.785Z,95468.00
2023-05-05T04:38:38.982Z,95470.00
2023-05-05T04:39:38.909Z,95472.00
2023-05-05T04:40:38.990Z,95472.00
2023-05-05T04:41:39.094Z,95472.00
2023-05-05T04:42:39.118Z,95472.00
2023-05-05T04:43:39.189Z,95472.00
2023-05-05T04:44:39.262Z,95472.00
2023-05-05T04:45:39.297Z,95472.00
2023-05-05T04:46:39.346Z,95474.00
2023-05-05T04:47:39.476Z,95476.00
2023-05-05T04:48:39.472Z,95476.00
2023-05-05T04:49:39.508Z,95476.00
2023-05-05T04:50:39.603Z,95474.00
2023-05-05T04:51:39.608Z,95474.00
2023-05-05T04:52:39.698Z,95474.00
2023-05-05T04:53:39.766Z,95476.00
2023-05-05T04:54:39.825Z,95474.00
2023-05-05T04:55:39.856Z,95474.00
2023-05-05T04:56:39.945Z,95474.00
2023-05-05T04:57:39.953Z,95477.00
2023-05-05T04:58:40.106Z,95481.00
2023-05-05T04:59:40.084Z,95481.00
2023-05-05T05:00:40.118Z,95477.00
2023-05-05T05:01:40.217Z,95481.00
2023-05-05T05:02:40.335Z,95481.00
2023-05-05T05:03:40.354Z,95481.00
2023-05-05T05:04:40.370Z,95483.00
2023-05-05T05:05:40.439Z,95487.00
2023-05-05T05:06:40.433Z,95487.00
2023-05-05T05:07:40.478Z,95489.00
2023-05-05T05:08:40.443Z,95487.00
2023-05-05T05:09:40.494Z,95489.00
2023-05-05T05:10:40.507Z,95487.00
2023-05-05T05:11:40.482Z,95491.00
2023-05-05T05:12:40.553Z,95489.00
2023-05-05T05:13:40.489Z,95487.00
2023-05-05T05:14:40.627Z,95489.00
2023-05-05T05:15:40.718Z,95487.00
2023-05-05T05:16:40.782Z,95489.00
2023-05-05T05:17:40.845Z,95487.00
2023-05-05T05:18:41.097Z,95487.00
2023-05-05T05:19:40.879Z,95485.00
2023-05-05T05:20:40.940Z,95489.00
2023-05-05T05:21:41.102Z,95487.00
2023-05-05T05:22:41.036Z,95487.00
2023-05-05T05:23:41.086Z,95487.00
2023-05-05T05:24:41.168Z,95487.00
2023-05-05T05:25:41.235Z,95489.00
2023-05-05T05:26:41.364Z,95487.00
2023-05-05T05:27:41.483Z,95487.00
2023-05-05T05:28:41.573Z,95487.00
2023-05-05T05:29:41.770Z,95487.00
2023-05-05T05:30:41.628Z,95489.00
2023-05-05T05:31:41.743Z,95485.00
2023-05-05T05:32:41.692Z,95487.00
2023-05-05T05:33:42.083Z,95489.00
2023-05-05T05:34:41.755Z,95489.00
2023-05-05T05:35:41.803Z,95487.00
2023-05-05T05:36:41.864Z,95489.00
2023-05-05T05:37:41.913Z,95487.00
2023-05-05T05:38:41.935Z,95489.00
2023-05-05T05:39:43.337Z,95489.00
2023-05-05T05:40:41.995Z,95489.00
2023-05-05T05:41:42.092Z,95493.00
2023-05-05T05:42:42.090Z,95491.00
2023-05-05T05:43:42.199Z,95491.00
2023-05-05T05:44:42.199Z,95491.00
2023-05-05T05:45:42.232Z,95491.00
2023-05-05T05:46:43.122Z,95489.00
2023-05-05T05:47:42.356Z,95489.00
2023-05-05T05:48:42.406Z,95487.00
2023-05-05T05:49:42.414Z,95491.00
2023-05-05T05:50:42.461Z,95491.00
2023-05-05T05:51:42.516Z,95491.00
2023-05-05T05:52:42.602Z,95493.00
2023-05-05T05:53:42.797Z,95491.00
2023-05-05T05:54:42.692Z,95489.00
2023-05-05T05:55:42.713Z,95495.00
2023-05-05T05:56:42.778Z,95495.00
2023-05-05T05:57:42.869Z,95493.00
2023-05-05T05:58:42.864Z,95493.00
2023-05-05T05:59:42.889Z,95491.00
2023-05-05T06:00:42.915Z,95493.00
2023-05-05T06:01:43.000Z,95491.00
2023-05-05T06:02:43.091Z,95493.00
2023-05-05T06:03:43.063Z,95495.00
2023-05-05T06:04:43.152Z,95495.00
2023-05-05T06:05:43.033Z,95495.00
2023-05-05T06:06:43.049Z,95495.00
2023-05-05T06:07:43.029Z,95493.00
2023-05-05T06:08:43.676Z,95493.00
2023-05-05T06:09:43.054Z,95495.00
2023-05-05T06:10:43.051Z,95495.00
2023-05-05T06:11:43.056Z,95495.00
2023-05-05T06:12:43.138Z,95497.00
2023-05-05T06:13:43.078Z,95493.00
2023-05-05T06:14:43.083Z,95495.00
2023-05-05T06:15:43.111Z,95495.00
2023-05-05T06:16:43.114Z,95495.00
2023-05-05T06:17:43.149Z,95493.00
2023-05-05T06:18:43.064Z,95493.00
2023-05-05T06:19:43.112Z,95491.00
2023-05-05T06:20:43.128Z,95491.00
2023-05-05T06:21:43.129Z,95493.00
2023-05-05T06:22:43.153Z,95491.00
2023-05-05T06:23:43.179Z,95489.00
2023-05-05T06:24:43.185Z,95489.00
2023-05-05T06:25:43.278Z,95487.00
2023-05-05T06:26:43.312Z,95489.00
2023-05-05T06:27:43.369Z,95485.00
2023-05-05T06:28:43.597Z,95491.00
2023-05-05T06:29:43.461Z,95483.00
2023-05-05T06:30:43.468Z,95481.00
2023-05-05T06:31:43.590Z,95481.00
2023-05-05T06:32:43.538Z,95481.00
2023-05-05T06:33:43.519Z,95479.00
2023-05-05T06:34:43.514Z,95477.00
2023-05-05T06:35:43.553Z,95476.00
2023-05-05T06:36:43.597Z,95474.00
2023-05-05T06:37:43.514Z,95476.00
2023-05-05T06:38:43.711Z,95474.00
2023-05-05T06:39:43.544Z,95472.00
2023-05-05T06:40:43.510Z,95468.00
2023-05-05T06:41:43.676Z,95468.00
2023-05-05T06:42:43.579Z,95468.00
2023-05-05T06:43:43.557Z,95464.00
2023-05-05T06:44:43.642Z,95466.00
2023-05-05T06:45:43.964Z,95464.00
2023-05-05T06:46:43.705Z,95462.00
2023-05-05T06:47:43.616Z,95464.00
2023-05-05T06:48:43.617Z,95456.00
2023-05-05T06:49:43.571Z,95462.00
2023-05-05T06:50:43.556Z,95460.00
2023-05-05T06:51:43.626Z,95460.00
2023-05-05T06:52:43.702Z,95454.00
2023-05-05T06:53:44.125Z,95450.00
2023-05-05T06:54:43.696Z,95456.00
2023-05-05T06:55:43.707Z,95454.00
2023-05-05T06:56:43.744Z,95454.00
2023-05-05T06:57:43.784Z,95458.00
2023-05-05T06:58:43.759Z,95458.00
2023-05-05T06:59:43.765Z,95456.00
2023-05-05T07:00:43.802Z,95458.00
2023-05-05T07:01:43.759Z,95456.00
2023-05-05T07:02:43.845Z,95454.00
2023-05-05T07:03:43.944Z,95454.00
2023-05-05T07:04:43.884Z,95456.00
2023-05-05T07:05:43.913Z,95454.00
2023-05-05T07:06:43.942Z,95454.00
2023-05-05T07:07:43.979Z,95450.00
2023-05-05T07:08:43.977Z,95452.00
2023-05-05T07:09:44.103Z,95452.00
2023-05-05T07:10:44.068Z,95446.00
2023-05-05T07:11:44.079Z,95448.00
2023-05-05T07:12:44.221Z,95446.00
2023-05-05T07:13:44.646Z,95446.00
2023-05-05T07:14:44.194Z,95444.00
2023-05-05T07:15:44.257Z,95444.00
2023-05-05T07:16:44.264Z,95442.00
2023-05-05T07:17:44.317Z,95442.00
2023-05-05T07:18:44.348Z,95440.00
2023-05-05T07:19:44.322Z,95436.00
2023-05-05T07:20:44.494Z,95436.00
2023-05-05T07:21:44.411Z,95432.00
2023-05-05T07:22:44.362Z,95430.00
2023-05-05T07:23:44.360Z,95430.00
2023-05-05T07:24:44.387Z,95430.00
2023-05-05T07:25:44.397Z,95429.00
2023-05-05T07:26:44.401Z,95429.00
2023-05-05T07:27:44.406Z,95427.00
2023-05-05T07:28:44.445Z,95429.00
2023-05-05T07:29:44.399Z,95425.00
2023-05-05T07:30:44.420Z,95425.00
2023-05-05T07:31:44.470Z,95427.00
2023-05-05T07:32:44.570Z,95427.00
2023-05-05T07:33:44.681Z,95423.00
2023-05-05T07:34:44.601Z,95423.00
2023-05-05T07:35:44.710Z,95421.00
2023-05-05T07:36:44.760Z,95421.00
2023-05-05T07:37:44.805Z,95419.00
2023-05-05T07:38:45.213Z,95419.00
2023-05-05T07:39:44.908Z,95419.00
2023-05-05T07:40:45.029Z,95417.00
2023-05-05T07:41:45.049Z,95417.00
2023-05-05T07:42:45.110Z,95415.00
2023-05-05T07:43:45.137Z,95415.00
2023-05-05T07:44:45.292Z,95415.00
2023-05-05T07:45:45.307Z,95405.00
2023-05-05T07:46:45.274Z,95407.00
2023-05-05T07:47:45.404Z,95407.00
2023-05-05T07:48:45.407Z,95401.00
2023-05-05T07:49:45.389Z,95395.00
2023-05-05T07:50:45.489Z,95395.00
2023-05-05T07:51:45.493Z,95393.00
2023-05-05T07:52:50.053Z,95389.00
2023-05-05T07:53:46.540Z,95389.00
2023-05-05T07:54:45.498Z,95391.00
2023-05-05T07:55:45.551Z,95385.00
2023-05-05T07:56:45.504Z,95383.00
2023-05-05T07:57:45.537Z,95379.00
2023-05-05T07:58:45.527Z,95381.00
2023-05-05T07:59:45.497Z,95383.00
2023-05-05T08:00:45.517Z,95381.00
2023-05-05T08:01:45.434Z,95377.00
2023-05-05T08:02:45.491Z,95379.00
2023-05-05T08:03:45.587Z,95376.00
2023-05-05T08:04:45.585Z,95379.00
2023-05-05T08:05:45.433Z,95383.00
2023-05-05T08:06:45.470Z,95383.00
2023-05-05T08:07:45.424Z,95383.00
2023-05-05T08:08:45.428Z,95381.00
2023-05-05T08:09:45.442Z,95377.00
2023-05-05T08:10:45.470Z,95377.00
2023-05-05T08:11:45.419Z,95377.00
2023-05-05T08:12:45.427Z,95376.00
2023-05-05T08:13:45.431Z,95374.00
2023-05-05T08:14:45.425Z,95377.00
2023-05-05T08:15:45.460Z,95372.00
2023-05-05T08:16:45.448Z,95372.00
2023-05-05T08:17:45.430Z,95370.00
2023-05-05T08:18:45.467Z,95366.00
2023-05-05T08:19:45.520Z,95366.00
2023-05-05T08:20:45.613Z,95366.00
2023-05-05T08:21:45.592Z,95366.00
2023-05-05T08:22:45.640Z,95364.00
2023-05-05T08:23:45.657Z,95358.00
2023-05-05T08:24:46.179Z,95360.00
2023-05-05T08:25:45.761Z,95358.00
2023-05-05T08:26:45.849Z,95354.00
2023-05-05T08:27:45.875Z,95356.00
2023-05-05T08:28:45.909Z,95356.00
2023-05-05T08:29:45.998Z,95352.00
2023-05-05T08:30:46.009Z,95354.00
2023-05-05T08:31:46.126Z,95350.00
2023-05-05T08:32:46.169Z,95350.00
2023-05-05T08:33:46.124Z,95350.00
2023-05-05T08:34:46.206Z,95346.00
2023-05-05T08:35:46.185Z,95342.00
2023-05-05T08:36:46.255Z,95340.00
2023-05-05T08:37:46.345Z,95338.00
2023-05-05T08:38:46.385Z,95340.00
2023-05-05T08:39:46.434Z,95334.00
2023-05-05T08:40:46.428Z,95338.00
2023-05-05T08:41:46.429Z,95336.00
2023-05-05T08:42:46.567Z,95330.00
2023-05-05T08:43:46.448Z,95332.00
2023-05-05T08:44:46.506Z,95330.00
2023-05-05T08:45:46.494Z,95332.00
2023-05-05T08:46:46.543Z,95330.00
2023-05-05T08:47:46.626Z,95325.00
2023-05-05T08:48:46.700Z,95329.00
2023-05-05T08:49:46.660Z,95327.00
2023-05-05T08:50:46.770Z,95325.00
2023-05-05T08:51:46.806Z,95321.00
2023-05-05T08:53:46.850Z,95321.00
2023-05-05T08:54:46.899Z,95319.00
2023-05-05T08:55:46.947Z,95321.00
2023-05-05T08:56:47.016Z,95315.00
2023-05-05T08:57:47.040Z,95315.00
2023-05-05T08:58:47.112Z,95315.00
2023-05-05T08:59:47.114Z,95317.00
2023-05-05T09:00:47.142Z,95315.00
2023-05-05T09:01:47.085Z,95315.00
2023-05-05T09:02:47.253Z,95311.00
2023-05-05T09:03:47.165Z,95309.00
2023-05-05T09:04:47.707Z,95309.00
2023-05-05T09:05:47.237Z,95303.00
2023-05-05T09:06:47.278Z,95305.00
2023-05-05T09:07:47.501Z,95301.00
2023-05-05T09:08:47.394Z,95305.00
2023-05-05T09:09:47.496Z,95303.00
2023-05-05T09:10:47.492Z,95301.00
2023-05-05T09:11:47.521Z,95299.00
2023-05-05T09:12:47.715Z,95297.00
2023-05-05T09:13:47.674Z,95295.00
2023-05-05T09:14:48.157Z,95297.00
2023-05-05T09:15:47.844Z,95295.00
2023-05-05T09:16:47.850Z,95289.00
2023-05-05T09:17:47.939Z,95289.00
2023-05-05T09:18:47.964Z,95283.00
2023-05-05T09:19:48.025Z,95285.00
2023-05-05T09:20:48.127Z,95283.00
2023-05-05T09:21:48.108Z,95282.00
2023-05-05T09:22:48.235Z,95280.00
2023-05-05T09:23:48.187Z,95280.00
2023-05-05T09:24:48.273Z,95278.00
2023-05-05T09:25:48.343Z,95278.00
2023-05-05T09:26:48.385Z,95278.00
2023-05-05T09:27:48.494Z,95274.00
2023-05-05T09:28:48.559Z,95272.00
2023-05-05T09:29:48.573Z,95268.00
2023-05-05T09:30:48.610Z,95268.00
2023-05-05T09:31:48.668Z,95266.00
2023-05-05T09:32:48.835Z,95266.00
2023-05-05T09:33:48.807Z,95266.00
2023-05-05T09:34:49.206Z,95264.00
2023-05-05T09:35:48.846Z,95266.00
2023-05-05T09:36:48.942Z,95260.00
2023-05-05T09:37:48.919Z,95258.00
2023-05-05T09:38:48.940Z,95254.00
2023-05-05T09:39:48.945Z,95260.00
2023-05-05T09:40:48.995Z,95256.00
2023-05-05T09:41:48.977Z,95256.00
2023-05-05T09:42:49.046Z,95256.00
2023-05-05T09:43:49.014Z,95252.00
2023-05-05T09:44:49.029Z,95252.00
2023-05-05T09:45:49.034Z,95250.00
2023-05-05T09:46:49.122Z,95250.00
2023-05-05T09:47:49.236Z,95246.00
2023-05-05T09:48:49.071Z,95250.00
2023-05-05T09:49:49.196Z,95246.00
2023-05-05T09:50:49.061Z,95250.00
2023-05-05T09:51:49.104Z,95244.00
2023-05-05T09:52:49.147Z,95244.00
2023-05-05T09:53:49.022Z,95246.00
2023-05-05T09:54:49.108Z,95244.00
2023-05-05T09:55:49.093Z,95242.00
2023-05-05T09:56:49.055Z,95240.00
2023-05-05T09:57:49.108Z,95238.00
2023-05-05T09:58:49.152Z,95238.00
2023-05-05T09:59:49.156Z,95236.00
2023-05-05T10:00:49.166Z,95236.00
2023-05-05T10:01:49.262Z,95234.00
2023-05-05T10:02:49.327Z,95230.00
2023-05-05T10:03:49.453Z,95230.00
2023-05-05T10:04:49.752Z,95230.00
2023-05-05T10:05:49.423Z,95227.00
2023-05-05T10:06:49.444Z,95225.00
2023-05-05T10:07:49.495Z,95225.00
2023-05-05T10:08:49.451Z,95227.00
2023-05-05T10:09:49.749Z,95225.00
2023-05-05T10:10:49.491Z,95227.00
2023-05-05T10:11:49.569Z,95223.00
2023-05-05T10:12:49.727Z,95217.00
2023-05-05T10:13:49.534Z,95217.00
2023-05-05T10:14:49.720Z,95215.00
2023-05-05T10:15:49.582Z,95215.00
2023-05-05T10:16:49.586Z,95211.00
2023-05-05T10:18:05.077Z,95211.00
2023-05-05T10:18:50.594Z,95211.00
2023-05-05T10:19:49.684Z,95207.00
2023-05-05T10:20:49.569Z,95203.00
2023-05-05T10:21:49.590Z,95203.00
2023-05-05T10:22:49.621Z,95201.00
2023-05-05T10:23:49.522Z,95197.00
2023-05-05T10:24:49.546Z,95197.00
2023-05-05T10:25:49.547Z,95199.00
2023-05-05T10:26:49.528Z,95197.00
2023-05-05T10:27:49.515Z,95193.00
2023-05-05T10:28:49.567Z,95191.00
2023-05-05T10:29:49.690Z,95193.00
2023-05-05T10:30:49.500Z,95189.00
2023-05-05T10:31:49.523Z,95187.00
2023-05-05T10:32:56.843Z,95183.00
2023-05-05T10:33:50.560Z,95183.00
2023-05-05T10:34:49.692Z,95181.00
2023-05-05T10:35:49.525Z,95181.00
2023-05-05T10:36:49.459Z,95178.00
2023-05-05T10:37:49.435Z,95176.00
2023-05-05T10:38:49.427Z,95174.00
2023-05-05T10:39:49.695Z,95168.00
2023-05-05T10:40:49.490Z,95168.00
2023-05-05T10:41:49.429Z,95162.00
2023-05-05T10:42:49.456Z,95168.00
2023-05-05T10:43:49.383Z,95160.00
2023-05-05T10:44:49.791Z,95162.00
2023-05-05T10:45:49.498Z,95160.00
2023-05-05T10:46:49.377Z,95150.00
2023-05-05T10:47:49.426Z,95148.00
2023-05-05T10:48:49.485Z,95146.00
2023-05-05T10:49:49.722Z,95146.00
2023-05-05T10:50:49.393Z,95148.00
2023-05-05T10:51:49.378Z,95144.00
2023-05-05T10:52:49.377Z,95142.00
2023-05-05T10:53:49.428Z,95144.00
2023-05-05T10:54:49.364Z,95142.00
2023-05-05T10:55:49.349Z,95138.00
2023-05-05T10:56:49.541Z,95136.00
2023-05-05T10:57:49.321Z,95133.00
2023-05-05T10:58:59.691Z,95133.00
2023-05-05T10:59:50.793Z,95129.00
2023-05-05T11:00:49.369Z,95129.00
2023-05-05T11:01:49.293Z,95127.00
2023-05-05T11:02:49.344Z,95123.00
2023-05-05T11:03:49.325Z,95123.00
2023-05-05T11:04:49.703Z,95121.00
2023-05-05T11:06:00.840Z,95121.00
2023-05-05T11:06:49.452Z,95119.00
2023-05-05T11:07:49.552Z,95117.00
2023-05-05T11:08:49.584Z,95113.00
2023-05-05T11:09:49.635Z,95115.00
2023-05-05T11:10:49.744Z,95111.00
2023-05-05T11:11:49.778Z,95107.00
2023-05-05T11:12:49.818Z,95103.00
2023-05-05T11:13:49.824Z,95099.00
2023-05-05T11:14:50.279Z,95099.00
2023-05-05T11:15:49.966Z,95097.00
2023-05-05T11:16:50.082Z,95097.00
2023-05-05T11:17:50.080Z,95093.00
2023-05-05T11:18:50.143Z,95087.00
2023-05-05T11:19:50.277Z,95089.00
2023-05-05T11:20:50.394Z,95091.00
2023-05-05T11:21:50.350Z,95081.00
2023-05-05T11:22:50.365Z,95080.00
2023-05-05T11:23:50.412Z,95076.00
2023-05-05T11:24:50.768Z,95076.00
2023-05-05T11:25:50.521Z,95078.00
2023-05-05T11:26:50.571Z,95076.00
2023-05-05T11:27:50.581Z,95076.00
2023-05-05T11:28:50.576Z,95076.00
2023-05-05T11:29:52.071Z,95068.00
2023-05-05T11:30:50.658Z,95068.00
2023-05-05T11:31:50.676Z,95068.00
2023-05-05T11:32:50.703Z,95066.00
2023-05-05T11:33:50.777Z,95060.00
2023-05-05T11:34:50.750Z,95064.00
2023-05-05T11:35:50.702Z,95062.00
2023-05-05T11:36:50.705Z,95060.00
2023-05-05T11:37:50.677Z,95058.00
2023-05-05T11:38:50.736Z,95058.00
2023-05-05T11:39:50.771Z,95054.00
2023-05-05T11:40:50.888Z,95054.00
2023-05-05T11:41:50.912Z,95050.00
2023-05-05T11:42:50.943Z,95050.00
2023-05-05T11:43:51.057Z,95048.00
2023-05-05T11:44:51.143Z,95044.00
2023-05-05T11:45:51.163Z,95038.00
2023-05-05T11:46:51.320Z,95040.00